Meteo Giornale » Osservazioni meteo Sud Africa » Lanseria Civ-Mil
ore: 21:00 - Osservazioni Meteo Lanseria Civ-Mil
Lat. 25° 56' S Lon. 27° 56' E Alt. 1377 metri s.l.m.
19 °C
Sereno
Temp. 24 Ore
10 °C
27 °C
Nord
0 Km/h
Dew point 4 °C
Umidità 37 %
Visibilità 10 Km
Il sole sorge alle ore 06:20
Il sole tramonta alle ore 17:56
| Data e Ora | Cielo e Fenomeni | T °C | DP °C | Um. % | Pres. hPa | Vis. km | Vento km/h | |
|---|---|---|---|---|---|---|---|---|
| Oggi h: 21:00 | Sereno | 19 | 4 | 37 | 1028 | 10 | N 0 | |
| Oggi h: 20:00 | Sereno | 21 | 4 | 32 | 1027 | 10 | N 3.7 | |
| Oggi h: 19:00 | Sereno | 22 | 3 | 28 | 1026 | 10 | E/NE 7.4 | |
| Oggi h: 18:00 | Sereno | 24 | 3 | 25 | 1026 | 10 | N/NE 7.4 | |
| Oggi h: 17:00 | Sereno | 26 | 3 | 22 | 1026 | 10 | N/NO 18.5 | |
| Oggi h: 16:00 | Sereno | 27 | 3 | 21 | 1025 | 10 | N/NO 20.3 | |
| Oggi h: 15:00 | Sereno | 27 | 2 | 19 | 1026 | 10 | N/NO 22.2 | |
| Oggi h: 14:00 | Sereno | 27 | 4 | 22 | 1027 | 10 | N 13 | |
| Oggi h: 13:00 | Sereno | 26 | 5 | 25 | 1027 | 10 | N 14.8 | |
| Oggi h: 12:00 | Sereno | 25 | 6 | 29 | 1028 | 10 | N/NE 13 | |
| Oggi h: 11:00 | Sereno | 23 | 5 | 31 | 1030 | 10 | N 9.3 | |
| Oggi h: 10:00 | Sereno | 21 | 6 | 37 | 1030 | 10 | NE 7.4 | |
| Oggi h: 09:00 | Sereno | 19 | 5 | 39 | 1030 | 10 | N 5.5 | |
| Oggi h: 08:49 | Sereno | 19 | 6 | 42 | 1030 | 10 | N 3.7 | |
| Oggi h: 08:21 | Sereno | 17 | 5 | 45 | 1030 | 10 | N 3.7 | |
| Oggi h: 08:00 | Sereno | 15 | 5 | 51 | 1030 | 10 | N 3.7 | |
| Oggi h: 07:19 | Sereno | 12 | 4 | 57 | 1029 | 10 | N 3.7 | |
| Oggi h: 07:00 | Sereno | 10 | 3 | 61 | 1029 | 10 | N 1.8 | |
| Oggi h: 06:00 | Sereno | 11 | 3 | 57 | 1028 | 8 | N 3.7 | |
| Oggi h: 05:00 | Sereno | 13 | 4 | 54 | 1028 | 10 | S/SO 11.1 | |
| Oggi h: 04:37 | Sereno | 14 | 4 | 50 | 1028 | 10 | S/SO 9.3 | |
| Oggi h: 04:00 | Sereno | 13 | 4 | 54 | 1028 | 10 | N 1.8 | |
| Oggi h: 03:00 | Sereno | 16 | 4 | 44 | 1028 | 10 | N 5.5 | |
| Oggi h: 02:00 | Sereno | 15 | 4 | 47 | 1028 | 10 | N 5.5 | |
| Oggi h: 01:00 | Sereno | 16 | 4 | 44 | 1028 | 0 | N 5.5 | |
| Oggi h: 00:15 | Sereno | 17 | 4 | 41 | 1028 | 0 | N 3.7 | |
| Oggi h: 00:00 | Sereno | 15 | 3 | 44 | 1028 | 0 | N 5.5 | |
| Ieri h: 23:00 | Sereno | 18 | 4 | 39 | 1028 | 0 | E/SE 11.1 | |
| Ieri h: 22:00 | Sereno | 18 | 3 | 36 | 1028 | 10 | S/SE 7.4 | |



